Time;durP1;ratioP1;P1;durP2;ratioP2;P2;SDS_P1;SDS_P2;PMS_P1;PMS_P2;Temp;Humidity;BMP_temperature;BMP_pressure;BME280_temperature;BME280_humidity;BME280_pressure;Samples;Min_cycle;Max_cycle;Signal;HPM_P1;HPM_P2
2023/04/07 00:01:23;;;;;;;21.00;14.90;;;;;;;9.22;63.94;100410.79;108163;1287;21987;-66
2023/04/07 00:03:49;;;;;;;19.00;15.50;;;;;;;9.24;64.10;100414.29;108124;1286;21988;-67
2023/04/07 00:06:15;;;;;;;18.50;14.20;;;;;;;9.26;63.91;100416.02;108120;1279;21982;-66
2023/04/07 00:08:49;;;;;;;19.10;15.00;;;;;;;9.27;63.98;100418.29;108093;1287;21981;-63
2023/04/07 00:11:16;;;;;;;20.00;15.30;;;;;;;9.29;63.86;100417.20;108146;1287;21988;-64
2023/04/07 00:13:43;;;;;;;20.10;15.00;;;;;;;9.31;63.84;100417.90;108076;1287;22004;-64
2023/04/07 00:16:09;;;;;;;18.90;14.50;;;;;;;9.32;63.93;100415.45;108069;1287;22003;-66
2023/04/07 00:18:34;;;;;;;18.30;14.70;;;;;;;9.34;64.00;100414.73;108114;1287;21995;-64
2023/04/07 00:21:00;;;;;;;22.70;16.60;;;;;;;9.39;64.34;100416.27;108133;1285;22842;-66
2023/04/07 00:23:26;;;;;;;22.60;16.90;;;;;;;9.44;64.36;100416.95;108086;1282;21989;-64
2023/04/07 00:25:52;;;;;;;22.30;16.20;;;;;;;9.48;64.65;100417.79;108108;1287;21991;-66
2023/04/07 00:28:17;;;;;;;22.60;16.50;;;;;;;9.54;64.80;100418.79;108206;1287;21992;-64
2023/04/07 00:30:43;;;;;;;20.80;15.90;;;;;;;9.62;65.04;100419.98;108117;1287;21992;-66
2023/04/07 00:33:09;;;;;;;22.30;15.90;;;;;;;9.70;65.19;100421.30;108211;1287;21990;-64
2023/04/07 00:35:35;;;;;;;20.80;15.80;;;;;;;9.78;65.25;100419.14;108081;1287;21987;-67
2023/04/07 00:38:02;;;;;;;20.90;15.80;;;;;;;9.85;65.30;100418.73;108135;1287;21984;-64
2023/04/07 00:40:28;;;;;;;25.40;17.50;;;;;;;9.91;65.32;100418.67;108126;1287;21991;-66
2023/04/07 00:42:57;;;;;;;24.80;18.30;;;;;;;9.96;65.50;100417.23;108172;1287;21993;-66
2023/04/07 00:45:23;;;;;;;21.10;16.70;;;;;;;10.01;65.64;100415.25;108081;1287;21987;-66
2023/04/07 00:47:49;;;;;;;21.90;17.50;;;;;;;10.06;65.76;100416.96;108172;1287;21998;-64
2023/04/07 00:50:15;;;;;;;24.40;17.70;;;;;;;10.11;65.99;100419.90;108128;1285;21989;-64
2023/04/07 00:52:40;;;;;;;22.70;17.50;;;;;;;10.20;66.16;100415.60;108149;1287;22015;-64
2023/04/07 00:55:07;;;;;;;23.10;16.40;;;;;;;10.29;66.44;100413.92;108023;1287;21986;-67
2023/04/07 00:57:32;;;;;;;21.10;16.10;;;;;;;10.38;66.58;100415.77;108178;1283;22015;-66
2023/04/07 01:00:00;;;;;;;20.70;16.10;;;;;;;10.47;66.63;100416.40;108104;1287;21986;-64
2023/04/07 01:02:48;;;;;;;25.50;18.90;;;;;;;10.53;66.59;100412.99;108218;1287;22003;-66
2023/04/07 01:05:50;;;;;;;27.70;20.10;;;;;;;10.60;66.75;100414.33;108090;1287;21980;-67
2023/04/07 01:08:41;;;;;;;23.80;17.20;;;;;;;10.68;66.99;100414.05;107705;1294;22009;-67
2023/04/07 01:11:25;;;;;;;21.00;15.20;;;;;;;10.75;66.93;100414.66;108130;1287;23605;-64
2023/04/07 01:13:52;;;;;;;22.10;16.40;;;;;;;10.80;66.91;100419.16;108194;1287;22463;-64
2023/04/07 01:16:31;;;;;;;20.60;16.20;;;;;;;10.83;67.03;100421.23;108177;1287;23998;-64
2023/04/07 01:19:02;;;;;;;20.40;16.90;;;;;;;10.84;67.33;100422.45;108125;1280;21987;-65
2023/04/07 01:21:28;;;;;;;23.00;18.10;;;;;;;10.84;67.74;100425.77;108069;1287;22023;-64
2023/04/07 01:24:08;;;;;;;24.20;18.00;;;;;;;10.85;67.85;100427.52;107727;1287;21988;-64
2023/04/07 01:26:34;;;;;;;;;;;;;;;10.87;68.12;100430.13;108098;1287;21980;-67
2023/04/07 01:29:16;;;;;;;21.80;16.10;;;;;;;10.90;68.40;100429.41;108101;1287;21986;-67
2023/04/07 01:31:41;;;;;;;21.80;15.90;;;;;;;10.93;68.36;100427.78;108156;1287;22448;-68
2023/04/07 01:34:11;;;;;;;22.60;17.20;;;;;;;10.96;68.39;100423.37;107854;1275;21987;-64
2023/04/07 01:36:37;;;;;;;;;;;;;;;11.00;68.46;100422.78;107915;1287;22009;-67
2023/04/07 01:39:03;;;;;;;19.50;15.00;;;;;;;11.06;68.59;100421.47;107993;1287;21983;-67
2023/04/07 01:41:29;;;;;;;20.70;16.40;;;;;;;11.12;68.92;100418.76;107726;1287;21989;-67
2023/04/07 01:43:55;;;;;;;20.00;16.40;;;;;;;11.17;68.85;100421.66;107970;1287;21996;-66
2023/04/07 01:46:21;;;;;;;19.50;15.10;;;;;;;11.19;68.51;100420.59;108213;1287;21994;-65
2023/04/07 01:48:47;;;;;;;18.70;14.90;;;;;;;11.20;68.55;100417.05;108127;1287;21985;-66
2023/04/07 01:51:16;;;;;;;18.30;14.20;;;;;;;11.24;68.77;100412.27;108249;1287;22004;-67
2023/04/07 01:53:42;;;;;;;18.10;14.00;;;;;;;11.29;68.98;100407.79;107926;1287;21989;-64
2023/04/07 01:56:08;;;;;;;18.60;14.10;;;;;;;11.37;68.99;100407.66;107778;1287;21993;-65
2023/04/07 01:58:36;;;;;;;16.40;14.00;;;;;;;11.42;68.94;100407.25;107991;1287;22007;-66
2023/04/07 02:01:01;;;;;;;17.20;13.60;;;;;;;11.46;68.80;100407.20;108127;1287;21982;-67
2023/04/07 02:03:37;;;;;;;16.10;12.70;;;;;;;11.47;68.27;100408.41;107952;1276;21996;-64
2023/04/07 02:06:06;;;;;;;16.00;12.40;;;;;;;11.46;67.84;100405.43;108215;1287;21986;-67
2023/04/07 02:08:38;;;;;;;18.30;11.90;;;;;;;11.42;67.45;100402.68;108150;1287;21987;-68
2023/04/07 02:11:03;;;;;;;14.40;11.90;;;;;;;11.33;67.19;100401.05;108048;1287;21989;-67
2023/04/07 02:13:29;;;;;;;18.30;11.30;;;;;;;11.24;66.77;100403.30;107800;1287;21990;-67
2023/04/07 02:15:55;;;;;;;16.30;12.70;;;;;;;11.12;66.58;100410.48;108137;1283;21990;-64
2023/04/07 02:18:21;;;;;;;15.60;11.50;;;;;;;11.00;66.45;100411.02;107920;1283;24453;-68
2023/04/07 02:20:47;;;;;;;14.10;11.90;;;;;;;10.88;66.70;100410.28;108258;1284;21989;-67
2023/04/07 02:23:13;;;;;;;17.20;12.00;;;;;;;10.80;66.82;100412.33;107803;1287;22023;-66
2023/04/07 02:25:39;;;;;;;16.00;10.90;;;;;;;10.72;66.83;100415.75;108067;1287;21991;-64
2023/04/07 02:28:05;;;;;;;13.20;11.00;;;;;;;10.67;66.95;100413.88;108110;1287;23651;-64
2023/04/07 02:30:31;;;;;;;12.90;10.50;;;;;;;10.64;66.95;100416.02;108064;1287;23612;-64
2023/04/07 02:32:58;;;;;;;14.40;11.50;;;;;;;10.60;66.91;100413.80;108066;1287;23743;-67
2023/04/07 02:35:24;;;;;;;15.30;12.10;;;;;;;10.56;67.11;100415.60;108083;1287;21987;-66
2023/04/07 02:37:50;;;;;;;12.30;10.10;;;;;;;10.54;67.07;100420.36;108118;1287;21987;-67
2023/04/07 02:40:16;;;;;;;14.80;11.90;;;;;;;10.50;67.10;100420.75;108079;1276;21989;-64
2023/04/07 02:42:42;;;;;;;14.90;11.60;;;;;;;10.44;67.01;100422.39;108075;1287;22001;-64
2023/04/07 02:45:08;;;;;;;14.70;11.60;;;;;;;10.38;67.03;100424.37;108065;1287;21983;-66
2023/04/07 02:47:35;;;;;;;13.50;10.70;;;;;;;10.33;66.95;100426.52;108076;1287;24326;-65
2023/04/07 02:50:01;;;;;;;17.00;12.00;;;;;;;10.30;66.97;100431.81;108155;1287;23609;-64
2023/04/07 02:52:26;;;;;;;15.20;11.90;;;;;;;10.28;67.28;100437.09;108137;1287;21979;-64
2023/04/07 02:54:52;;;;;;;13.50;10.70;;;;;;;10.27;67.19;100439.73;108086;1287;22020;-66
2023/04/07 02:57:18;;;;;;;17.00;12.10;;;;;;;10.24;67.06;100440.80;107909;1283;21992;-64
2023/04/07 02:59:44;;;;;;;15.00;10.90;;;;;;;10.24;66.92;100446.24;108119;1287;22005;-67
2023/04/07 03:02:11;;;;;;;14.90;9.90;;;;;;;10.19;66.04;100447.87;108195;1287;21981;-64
2023/04/07 03:04:37;;;;;;;11.60;9.10;;;;;;;10.12;65.62;100447.59;108098;1287;23609;-64
2023/04/07 03:07:03;;;;;;;12.50;9.50;;;;;;;10.02;65.10;100449.59;108077;1287;21989;-64
2023/04/07 03:09:31;;;;;;;13.30;9.80;;;;;;;9.92;64.79;100448.82;107930;1287;21988;-64
2023/04/07 03:11:58;;;;;;;14.80;9.50;;;;;;;9.84;64.79;100453.43;108105;1287;21982;-64
2023/04/07 03:14:24;;;;;;;10.20;8.30;;;;;;;9.76;64.58;100455.95;108090;1287;21986;-66
2023/04/07 03:16:50;;;;;;;12.10;9.30;;;;;;;9.68;64.48;100460.05;108041;1287;21989;-66
2023/04/07 03:19:17;;;;;;;11.20;8.40;;;;;;;9.62;64.30;100461.31;108132;1287;21989;-65
2023/04/07 03:21:42;;;;;;;11.30;8.10;;;;;;;9.57;64.28;100462.91;108066;1287;22001;-69
2023/04/07 03:24:09;;;;;;;13.30;10.30;;;;;;;9.53;64.39;100459.78;108135;1287;21978;-66
2023/04/07 03:26:35;;;;;;;15.60;11.30;;;;;;;9.47;64.16;100463.52;108048;1287;22014;-66
2023/04/07 03:29:01;;;;;;;15.30;11.20;;;;;;;9.39;63.84;100465.48;108071;1287;22455;-67
2023/04/07 03:31:27;;;;;;;14.70;10.60;;;;;;;9.34;64.20;100471.12;108085;1287;21979;-65
2023/04/07 03:33:53;;;;;;;16.00;10.60;;;;;;;9.32;64.55;100487.77;108012;1287;22027;-67
2023/04/07 03:36:23;;;;;;;15.70;10.40;;;;;;;9.31;64.89;100504.58;108081;1287;21985;-64
2023/04/07 03:38:49;;;;;;;15.60;10.40;;;;;;;9.28;64.84;100504.25;108060;1287;21991;-65
2023/04/07 03:41:15;;;;;;;14.70;10.10;;;;;;;9.27;65.15;100506.90;108111;1287;21997;-64
2023/04/07 03:43:41;;;;;;;13.40;9.70;;;;;;;9.25;65.09;100512.50;108173;1274;22003;-66
2023/04/07 03:46:07;;;;;;;13.50;10.30;;;;;;;9.26;65.52;100515.30;108107;1287;23689;-67
2023/04/07 03:48:34;;;;;;;26.70;11.90;;;;;;;9.30;65.98;100518.77;108113;1286;21981;-66
2023/04/07 03:51:00;;;;;;;26.90;12.00;;;;;;;9.38;66.65;100522.25;108116;1287;21999;-64
2023/04/07 03:53:31;;;;;;;15.00;11.10;;;;;;;9.45;66.74;100524.14;108116;1287;21995;-66
2023/04/07 03:55:57;;;;;;;20.90;10.60;;;;;;;9.50;66.72;100528.84;108229;1287;21991;-64
2023/04/07 04:38:23;;;;;;;36.60;23.00;;;;;;;5.48;100.00;100575.94;106573;1289;1002754;-65
2023/04/07 04:40:54;;;;;;;29.00;21.20;;;;;;;8.66;91.30;100561.12;107821;1293;23721;-65
2023/04/07 04:43:21;;;;;;;26.70;18.80;;;;;;;9.24;85.09;100561.18;107626;1294;21992;-66
2023/04/07 04:45:46;;;;;;;23.00;17.60;;;;;;;9.57;82.51;100564.52;107703;1292;22013;-67
2023/04/07 04:48:12;;;;;;;22.40;16.00;;;;;;;9.82;81.35;100562.83;107715;1292;21990;-66
2023/04/07 04:50:38;;;;;;;26.10;16.20;;;;;;;10.03;80.69;100567.06;107698;1289;196236;-66
2023/04/07 04:53:04;;;;;;;20.20;15.60;;;;;;;10.23;80.63;100570.95;107690;1290;23297;-66
2023/04/07 04:55:30;;;;;;;22.90;14.00;;;;;;;10.44;80.36;100574.48;107943;1289;21988;-65
2023/04/07 04:57:56;;;;;;;18.40;13.50;;;;;;;10.64;80.12;100574.83;107933;1289;22017;-65
2023/04/07 05:00:25;;;;;;;16.60;12.70;;;;;;;10.84;79.88;100573.40;107936;1289;22457;-65
2023/04/07 05:02:51;;;;;;;17.70;12.40;;;;;;;11.11;79.40;100571.37;107924;1289;21996;-66
2023/04/07 05:05:17;;;;;;;16.90;12.70;;;;;;;11.32;79.36;100574.63;107887;1289;21989;-65
2023/04/07 05:07:48;;;;;;;18.40;13.30;;;;;;;11.53;79.41;100576.84;107923;1276;21991;-66
2023/04/07 05:10:15;;;;;;;20.30;12.60;;;;;;;11.73;79.28;100579.73;107930;1289;22006;-65
2023/04/07 05:12:41;;;;;;;19.70;12.10;;;;;;;11.94;79.35;100578.04;107888;1289;21983;-66
2023/04/07 05:15:07;;;;;;;20.20;12.70;;;;;;;12.16;79.44;100577.55;107926;1289;22029;-64
2023/04/07 05:17:35;;;;;;;16.90;12.20;;;;;;;12.39;80.03;100572.44;108045;1288;22666;-66
2023/04/07 05:20:01;;;;;;;17.60;10.90;;;;;;;12.61;80.46;100578.57;107980;1289;21998;-67
2023/04/07 05:22:27;;;;;;;21.40;11.20;;;;;;;12.83;80.65;100579.21;107978;1289;21987;-65
2023/04/07 05:24:53;;;;;;;15.20;11.10;;;;;;;13.04;81.20;100580.06;107867;1289;22268;-66
2023/04/07 05:27:18;;;;;;;16.50;11.50;;;;;;;13.22;80.91;100578.15;108039;1289;22004;-66
2023/04/07 05:29:47;;;;;;;16.00;11.00;;;;;;;13.36;80.55;100576.28;108027;1289;21989;-67
2023/04/07 05:32:13;;;;;;;14.50;10.90;;;;;;;13.49;80.25;100581.49;108075;1289;21993;-67
2023/04/07 05:34:40;;;;;;;14.30;9.70;;;;;;;13.60;79.72;100586.73;107921;1289;21992;-66
2023/04/07 05:37:05;;;;;;;13.50;9.60;;;;;;;13.67;79.08;100588.35;107969;1289;22001;-66
2023/04/07 05:39:31;;;;;;;10.60;8.90;;;;;;;13.74;79.03;100591.19;107960;1289;21983;-67
2023/04/07 05:41:57;;;;;;;11.80;8.90;;;;;;;13.80;78.60;100590.52;107972;1289;21985;-66
2023/04/07 05:44:26;;;;;;;16.60;10.00;;;;;;;13.83;78.09;100597.16;106551;1281;1003169;-66
2023/04/07 05:46:52;;;;;;;17.70;11.00;;;;;;;13.83;77.65;100599.45;108095;1288;21990;-67
2023/04/07 05:49:19;;;;;;;12.60;9.50;;;;;;;13.81;77.41;100597.39;107991;1289;21990;-66
2023/04/07 05:51:45;;;;;;;12.90;9.80;;;;;;;13.75;77.51;100599.98;107950;1284;21991;-66
2023/04/07 05:54:11;;;;;;;12.60;9.50;;;;;;;13.72;77.62;100595.81;107917;1289;22219;-67
2023/04/07 05:56:37;;;;;;;14.90;9.50;;;;;;;13.73;77.60;100599.85;107726;1290;21996;-65
2023/04/07 05:59:03;;;;;;;12.40;8.50;;;;;;;13.74;77.51;100607.77;107793;1290;21990;-67
2023/04/07 06:01:31;;;;;;;10.70;8.40;;;;;;;13.76;77.32;100608.08;107790;1290;21997;-65
2023/04/07 06:03:57;;;;;;;13.10;9.80;;;;;;;13.80;77.39;100611.87;107807;1290;23722;-67
2023/04/07 06:06:23;;;;;;;13.10;10.00;;;;;;;13.82;77.20;100611.12;107977;1289;21989;-66
2023/04/07 06:08:49;;;;;;;16.30;9.60;;;;;;;13.85;77.32;100610.89;107956;1289;23742;-67
2023/04/07 06:11:16;;;;;;;14.20;9.10;;;;;;;13.92;76.71;100614.44;107911;1289;21986;-66
2023/04/07 06:13:42;;;;;;;11.50;8.90;;;;;;;13.97;77.00;100615.20;107927;1289;21999;-66
2023/04/07 06:16:08;;;;;;;11.30;8.40;;;;;;;14.05;77.46;100617.48;108051;1288;21995;-66
2023/04/07 06:18:34;;;;;;;12.40;8.50;;;;;;;14.15;77.61;100620.09;108032;1289;21987;-67
2023/04/07 06:21:00;;;;;;;13.60;9.30;;;;;;;14.24;77.92;100619.16;108026;1289;21992;-66
2023/04/07 06:23:26;;;;;;;11.30;8.70;;;;;;;14.34;78.18;100621.23;107997;1289;23832;-66
2023/04/07 06:25:55;;;;;;;12.80;9.40;;;;;;;14.46;78.04;100625.70;108076;1289;21983;-66
2023/04/07 06:28:21;;;;;;;12.70;9.80;;;;;;;14.52;77.63;100626.09;108035;1289;21985;-66
2023/04/07 06:30:46;;;;;;;12.30;9.70;;;;;;;14.58;77.61;100629.65;107717;1287;22060;-67
2023/04/07 06:33:13;;;;;;;11.30;8.60;;;;;;;14.61;77.50;100630.10;108089;1288;22038;-68
2023/04/07 06:35:40;;;;;;;10.30;7.50;;;;;;;14.65;77.41;100631.08;107966;1285;22005;-69
2023/04/07 06:38:10;;;;;;;10.70;7.30;;;;;;;14.69;76.97;100632.05;107950;1289;23763;-67
2023/04/07 06:40:36;;;;;;;8.60;6.80;;;;;;;14.73;76.89;100634.98;107921;1288;24305;-67
2023/04/07 06:43:02;;;;;;;11.90;7.00;;;;;;;14.78;76.89;100636.08;108092;1289;21984;-67
2023/04/07 06:45:28;;;;;;;8.80;7.60;;;;;;;14.80;76.28;100637.59;107998;1284;22006;-68
2023/04/07 06:47:54;;;;;;;10.30;7.90;;;;;;;14.77;75.50;100639.80;107932;1289;23613;-68
2023/04/07 06:50:21;;;;;;;9.40;7.50;;;;;;;14.71;75.13;100644.38;107928;1289;21982;-68
2023/04/07 06:52:47;;;;;;;9.00;6.00;;;;;;;14.63;74.58;100646.47;107979;1289;21977;-69
2023/04/07 06:55:15;;;;;;;7.10;5.40;;;;;;;14.52;73.48;100649.39;107789;1289;22001;-67
2023/04/07 06:57:41;;;;;;;8.00;6.50;;;;;;;14.39;73.50;100647.59;107973;1289;21996;-68
2023/04/07 07:00:07;;;;;;;8.80;6.80;;;;;;;14.33;74.09;100651.97;107934;1289;22000;-68
2023/04/07 07:02:34;;;;;;;8.00;6.90;;;;;;;14.30;74.59;100650.27;107948;1289;21987;-67
2023/04/07 07:05:01;;;;;;;8.50;6.80;;;;;;;14.30;75.22;100656.80;107926;1286;21986;-67
2023/04/07 07:07:28;;;;;;;9.60;7.10;;;;;;;14.28;75.13;100660.55;107996;1289;21992;-67
2023/04/07 07:09:54;;;;;;;8.10;5.50;;;;;;;14.27;75.22;100663.92;108026;1289;22510;-67
2023/04/07 07:12:21;;;;;;;9.60;6.40;;;;;;;14.30;75.31;100661.92;108021;1289;21998;-68
2023/04/07 07:14:46;;;;;;;9.00;6.70;;;;;;;14.33;75.29;100667.33;107989;1289;22001;-69
2023/04/07 07:17:12;;;;;;;8.50;6.90;;;;;;;14.25;74.68;100671.21;107953;1289;22721;-68
2023/04/07 07:19:38;;;;;;;9.90;6.70;;;;;;;14.19;74.22;100674.35;107933;1289;23766;-68
2023/04/07 07:22:03;;;;;;;7.80;5.80;;;;;;;14.18;74.54;100675.77;107938;1289;22950;-68
2023/04/07 07:24:32;;;;;;;6.70;4.70;;;;;;;14.16;74.39;100675.29;108065;1289;21951;-68
2023/04/07 07:27:02;;;;;;;7.30;4.70;;;;;;;14.20;74.42;100679.25;107917;1288;23061;-67
2023/04/07 07:29:28;;;;;;;9.90;5.70;;;;;;;14.26;74.97;100677.71;107928;1289;22074;-69
2023/04/07 07:31:53;;;;;;;6.40;5.70;;;;;;;14.33;75.52;100675.80;108008;1289;22006;-68
2023/04/07 07:34:19;;;;;;;7.90;6.30;;;;;;;14.43;75.44;100676.98;107936;1289;23615;-69
2023/04/07 07:36:46;;;;;;;8.60;5.00;;;;;;;14.46;75.45;100678.16;107835;1290;21997;-68
2023/04/07 07:39:13;;;;;;;7.20;4.90;;;;;;;14.49;75.01;100681.23;107763;1290;22052;-69
2023/04/07 07:41:39;;;;;;;8.10;5.80;;;;;;;14.51;74.50;100683.86;108612;1289;21989;-69
2023/04/07 07:44:05;;;;;;;8.00;5.60;;;;;;;14.50;73.93;100686.52;107888;1289;23056;-69
2023/04/07 07:46:31;;;;;;;8.60;6.30;;;;;;;14.50;73.61;100685.10;107979;1289;21995;-69
2023/04/07 07:48:56;;;;;;;7.60;5.80;;;;;;;14.52;73.96;100686.48;107921;1289;21991;-68
2023/04/07 07:51:22;;;;;;;7.80;5.50;;;;;;;14.50;73.71;100684.05;107895;1289;21999;-68
2023/04/07 07:53:48;;;;;;;6.70;4.50;;;;;;;14.54;74.06;100683.41;107912;1289;23055;-68
2023/04/07 07:56:14;;;;;;;7.50;4.60;;;;;;;14.65;74.50;100683.36;107938;1287;21989;-69
2023/04/07 07:58:40;;;;;;;8.50;5.80;;;;;;;14.82;74.85;100690.39;108010;1289;25107;-70
2023/04/07 08:01:07;;;;;;;7.00;4.90;;;;;;;14.92;74.45;100687.48;107976;1285;23443;-70
2023/04/07 08:03:34;;;;;;;7.40;4.90;;;;;;;15.01;73.24;100687.27;107965;1289;21993;-69
2023/04/07 08:06:02;;;;;;;7.40;4.30;;;;;;;15.04;72.55;100688.94;108064;1289;22004;-69
2023/04/07 08:08:30;;;;;;;6.10;4.10;;;;;;;15.06;72.05;100687.29;107943;1289;22007;-69
2023/04/07 08:10:55;;;;;;;5.20;3.80;;;;;;;15.10;71.61;100689.84;107923;1289;22183;-69
2023/04/07 08:13:30;;;;;;;8.50;5.30;;;;;;;15.16;71.93;100689.52;108093;1289;21961;-68
2023/04/07 08:15:56;;;;;;;6.00;4.40;;;;;;;15.18;71.46;100689.46;108033;1289;21989;-68
2023/04/07 08:18:22;;;;;;;5.80;4.20;;;;;;;15.22;70.65;100687.05;108045;1289;21989;-69
2023/04/07 08:20:47;;;;;;;5.80;4.00;;;;;;;15.36;71.45;100690.92;107976;1288;21985;-70
2023/04/07 08:23:13;;;;;;;5.30;4.10;;;;;;;15.44;69.88;100688.77;107996;1288;23037;-68
2023/04/07 08:25:39;;;;;;;5.70;4.10;;;;;;;15.53;69.10;100690.46;108032;1289;21959;-69
2023/04/07 08:28:06;;;;;;;5.60;4.70;;;;;;;15.59;68.90;100686.23;107925;1289;21993;-68
2023/04/07 08:30:31;;;;;;;5.60;3.70;;;;;;;15.58;67.62;100690.48;108007;1289;23663;-69
2023/04/07 08:33:07;;;;;;;4.80;2.80;;;;;;;15.58;67.21;100694.03;107906;1286;23700;-70
2023/04/07 08:35:32;;;;;;;4.90;3.70;;;;;;;15.67;67.91;100696.09;107898;1284;21996;-68
2023/04/07 08:37:59;;;;;;;5.90;4.40;;;;;;;15.81;68.30;100696.21;107945;1289;23644;-69
2023/04/07 08:40:24;;;;;;;6.20;4.30;;;;;;;15.90;66.71;100697.39;107892;1289;21987;-70
2023/04/07 08:42:51;;;;;;;5.80;4.30;;;;;;;15.99;67.15;100696.24;107814;1289;21985;-69
2023/04/07 08:45:18;;;;;;;6.50;4.20;;;;;;;16.07;66.31;100694.96;107868;1289;23498;-69
2023/04/07 08:47:46;;;;;;;9.40;5.50;;;;;;;16.18;65.60;100696.05;108138;1286;22656;-68
2023/04/07 08:50:13;;;;;;;5.80;4.70;;;;;;;16.19;64.24;100695.99;108762;1287;21962;-67
2023/04/07 08:53:04;;;;;;;7.60;5.40;;;;;;;16.18;62.80;100696.57;108445;1289;23036;-68
2023/04/07 08:55:30;;;;;;;6.80;4.20;;;;;;;16.14;61.89;100697.59;107655;1289;21988;-68
2023/04/07 08:57:56;;;;;;;6.50;4.70;;;;;;;16.16;62.69;100695.38;107939;1288;22007;-68
2023/04/07 09:00:22;;;;;;;6.60;5.10;;;;;;;16.23;63.23;100699.25;107804;1287;22025;-67
2023/04/07 09:02:48;;;;;;;7.90;6.30;;;;;;;16.28;61.85;100703.88;107755;1289;22047;-68
2023/04/07 09:05:14;;;;;;;8.20;6.10;;;;;;;16.31;60.57;100706.98;107849;1288;22004;-68
2023/04/07 09:07:39;;;;;;;8.20;5.60;;;;;;;16.30;60.87;100710.02;107914;1289;21987;-67
2023/04/07 09:10:09;;;;;;;6.60;5.00;;;;;;;16.41;61.76;100710.05;107860;1289;21989;-68
2023/04/07 09:12:37;;;;;;;6.70;5.00;;;;;;;16.46;59.92;100706.16;107878;1289;21991;-67
2023/04/07 09:15:05;;;;;;;7.60;5.60;;;;;;;16.57;60.50;100705.80;107911;1289;21992;-67
2023/04/07 09:17:41;;;;;;;8.90;6.20;;;;;;;16.59;58.25;100704.69;107950;1289;23779;-67
2023/04/07 09:20:08;;;;;;;7.50;5.40;;;;;;;16.70;59.96;100708.96;107913;1289;21993;-67
2023/04/07 09:22:39;;;;;;;7.70;5.70;;;;;;;16.83;61.27;100710.83;107927;1288;22269;-67
2023/04/07 09:25:11;;;;;;;9.80;7.30;;;;;;;17.08;64.30;100710.38;107962;1288;21994;-69
2023/04/07 09:27:37;;;;;;;9.00;6.30;;;;;;;17.24;60.98;100710.71;107949;1286;21986;-67
2023/04/07 09:30:11;;;;;;;8.20;6.30;;;;;;;17.23;59.21;100714.11;107925;1289;21990;-68
2023/04/07 09:32:42;;;;;;;7.60;6.70;;;;;;;17.15;57.11;100710.51;107888;1289;23638;-68
2023/04/07 09:35:10;;;;;;;6.60;5.20;;;;;;;17.06;56.32;100711.70;108003;1286;21997;-68
2023/04/07 09:37:36;;;;;;;7.90;5.90;;;;;;;16.89;56.05;100715.06;107986;1284;21993;-67
2023/04/07 09:40:02;;;;;;;6.80;5.30;;;;;;;16.76;56.69;100717.79;107809;1288;21984;-66
2023/04/07 09:42:33;;;;;;;7.90;6.70;;;;;;;16.61;56.89;100717.19;107889;1288;21983;-69
2023/04/07 09:44:59;;;;;;;7.30;6.00;;;;;;;16.53;57.24;100723.64;107907;1289;21989;-66
2023/04/07 09:47:30;;;;;;;8.10;5.70;;;;;;;16.48;57.80;100720.81;107946;1287;21994;-67
2023/04/07 09:49:57;;;;;;;6.20;4.70;;;;;;;16.49;59.34;100719.02;107805;1289;22048;-69
2023/04/07 09:52:50;;;;;;;9.10;6.00;;;;;;;16.53;59.08;100723.67;107757;1289;22000;-68
2023/04/07 09:55:18;;;;;;;7.20;6.10;;;;;;;16.55;58.37;100727.34;107937;1287;22320;-68
2023/04/07 09:57:43;;;;;;;8.10;6.90;;;;;;;16.51;58.50;100729.20;107942;1289;21997;-69
2023/04/07 10:00:10;;;;;;;8.60;5.70;;;;;;;16.50;59.15;100730.46;107995;1289;21989;-69
2023/04/07 10:02:37;;;;;;;6.60;4.80;;;;;;;16.49;58.60;100731.74;108048;1289;21995;-67
2023/04/07 10:05:04;;;;;;;8.30;5.20;;;;;;;16.49;58.07;100735.65;107805;1289;21994;-70
2023/04/07 10:07:30;;;;;;;8.10;5.20;;;;;;;16.48;57.66;100741.16;108024;1289;23196;-68
2023/04/07 10:09:56;;;;;;;7.30;5.20;;;;;;;16.38;57.09;100742.17;108033;1287;22001;-69
2023/04/07 10:12:23;;;;;;;7.10;5.20;;;;;;;16.35;57.26;100744.23;108064;1287;21991;-67
2023/04/07 10:14:49;;;;;;;7.50;4.80;;;;;;;16.26;57.85;100746.11;107936;1289;23724;-69
2023/04/07 10:17:18;;;;;;;7.20;6.30;;;;;;;16.28;58.56;100745.70;107899;1288;21979;-67
2023/04/07 10:19:44;;;;;;;7.60;6.00;;;;;;;16.28;58.97;100745.14;107723;1290;22926;-68
2023/04/07 10:22:10;;;;;;;12.40;6.60;;;;;;;16.27;58.67;100749.59;107697;1289;22046;-68
2023/04/07 10:24:53;;;;;;;10.40;6.20;;;;;;;16.28;58.72;100750.81;107780;1289;22022;-68
2023/04/07 10:27:25;;;;;;;8.40;5.60;;;;;;;16.31;60.48;100750.55;107693;1289;21980;-67
2023/04/07 10:29:51;;;;;;;9.80;6.50;;;;;;;16.40;61.46;100751.00;107778;1288;23644;-68
2023/04/07 10:32:17;;;;;;;14.30;7.50;;;;;;;16.43;61.04;100751.96;107744;1286;21990;-68
2023/04/07 10:34:56;;;;;;;9.40;7.30;;;;;;;16.41;60.91;100756.07;107704;1288;22096;-67
2023/04/07 10:37:22;;;;;;;8.50;6.20;;;;;;;16.41;61.50;100754.30;108044;1286;22004;-67
2023/04/07 10:39:49;;;;;;;8.20;5.80;;;;;;;16.51;62.75;100756.14;107939;1288;21992;-70
2023/04/07 10:42:40;;;;;;;7.90;6.20;;;;;;;16.61;62.01;100756.52;108023;1288;22008;-67
2023/04/07 10:45:06;;;;;;;;;;;;;;;16.59;59.73;100758.20;108011;1288;24952;-68
2023/04/07 10:47:33;;;;;;;9.10;6.30;;;;;;;16.58;60.80;100757.86;108045;1288;23259;-67
2023/04/07 10:50:18;;;;;;;9.90;7.40;;;;;;;16.67;62.27;100756.34;108070;1288;21989;-68
2023/04/07 10:52:48;;;;;;;10.10;6.20;;;;;;;16.87;63.37;100753.76;108105;1287;21998;-66
2023/04/07 10:55:27;;;;;;;8.60;6.30;;;;;;;17.02;63.24;100752.56;107820;1287;22063;-66
2023/04/07 10:58:18;;;;;;;8.70;5.70;;;;;;;17.09;62.16;100750.05;108137;1288;21996;-68
2023/04/07 11:01:11;;;;;;;9.90;6.90;;;;;;;17.18;62.46;100751.15;108031;1288;21990;-68
2023/04/07 11:03:41;;;;;;;11.50;7.20;;;;;;;17.24;62.21;100748.86;107920;1288;22516;-67
2023/04/07 11:06:08;;;;;;;10.10;6.80;;;;;;;17.29;62.10;100752.40;108046;1289;22172;-68
2023/04/07 11:08:43;;;;;;;8.80;6.10;;;;;;;17.30;62.34;100752.90;108029;1288;21991;-67
2023/04/07 11:11:39;;;;;;;10.20;6.10;;;;;;;17.29;62.05;100751.34;108060;1287;21996;-68
2023/04/07 11:14:05;;;;;;;6.90;5.10;;;;;;;17.31;62.32;100751.42;108033;1288;21993;-67
2023/04/07 11:16:39;;;;;;;8.30;5.70;;;;;;;17.28;60.18;100754.75;108098;1288;21988;-68
2023/04/07 11:19:08;;;;;;;12.30;5.80;;;;;;;17.14;60.18;100752.90;108038;1288;24341;-68
2023/04/07 11:21:36;;;;;;;7.10;5.70;;;;;;;17.08;61.43;100753.98;108064;1288;21979;-71
2023/04/07 11:24:01;;;;;;;7.20;5.80;;;;;;;17.08;61.74;100754.00;108093;1289;22032;-65
2023/04/07 11:26:28;;;;;;;6.10;5.00;;;;;;;17.02;60.52;100752.77;108093;1289;22260;-65
2023/04/07 11:28:54;;;;;;;7.90;4.30;;;;;;;16.91;60.09;100755.05;108270;1289;21987;-68
2023/04/07 11:31:24;;;;;;;8.10;4.80;;;;;;;16.83;59.63;100756.89;107793;1289;23644;-69
2023/04/07 11:33:58;;;;;;;6.90;4.60;;;;;;;16.75;58.22;100757.70;108113;1289;22024;-67
2023/04/07 11:36:36;;;;;;;6.80;5.00;;;;;;;16.71;58.84;100755.85;108199;1288;23062;-66
2023/04/07 11:39:02;;;;;;;6.10;4.70;;;;;;;16.72;59.36;100756.89;108054;1288;23135;-66
2023/04/07 11:41:30;;;;;;;7.10;4.30;;;;;;;16.75;59.34;100758.19;107994;1288;21983;-68
2023/04/07 11:44:09;;;;;;;6.20;4.30;;;;;;;16.87;60.17;100755.00;108082;1289;21992;-66
2023/04/07 11:46:35;;;;;;;7.10;5.30;;;;;;;16.99;59.82;100755.70;107994;1289;22024;-66
2023/04/07 11:49:10;;;;;;;8.10;4.80;;;;;;;17.11;59.44;100756.90;108090;1289;22062;-68
2023/04/07 11:51:36;;;;;;;7.40;5.20;;;;;;;17.20;59.68;100756.60;108099;1288;22006;-66
2023/04/07 11:54:06;;;;;;;6.80;5.10;;;;;;;17.33;61.08;100755.48;108083;1288;22021;-68
2023/04/07 11:56:43;;;;;;;8.80;5.10;;;;;;;17.51;60.91;100753.80;109212;1288;22056;-66